sensor_id;sensor_type;location;lat;lon;timestamp;temperature;humidity
66086;DHT22;52868;49.758;9.586;2023-03-23T00:01:56;14.30;62.20
66086;DHT22;52868;49.758;9.586;2023-03-23T00:04:22;14.30;62.30
66086;DHT22;52868;49.758;9.586;2023-03-23T00:06:48;14.30;62.30
66086;DHT22;52868;49.758;9.586;2023-03-23T00:09:14;14.30;62.60
66086;DHT22;52868;49.758;9.586;2023-03-23T00:11:41;14.30;62.60
66086;DHT22;52868;49.758;9.586;2023-03-23T00:14:07;14.30;62.70
66086;DHT22;52868;49.758;9.586;2023-03-23T00:16:39;14.30;62.70
66086;DHT22;52868;49.758;9.586;2023-03-23T00:19:12;14.30;62.70
66086;DHT22;52868;49.758;9.586;2023-03-23T00:21:42;14.30;62.70
66086;DHT22;52868;49.758;9.586;2023-03-23T00:24:16;14.30;62.70
66086;DHT22;52868;49.758;9.586;2023-03-23T00:26:47;14.30;62.80
66086;DHT22;52868;49.758;9.586;2023-03-23T00:29:20;14.20;62.90
66086;DHT22;52868;49.758;9.586;2023-03-23T00:31:47;14.30;62.90
66086;DHT22;52868;49.758;9.586;2023-03-23T00:34:21;14.30;62.90
66086;DHT22;52868;49.758;9.586;2023-03-23T00:36:49;14.30;63.00
66086;DHT22;52868;49.758;9.586;2023-03-23T00:39:16;14.20;63.00
66086;DHT22;52868;49.758;9.586;2023-03-23T00:41:43;14.30;63.00
66086;DHT22;52868;49.758;9.586;2023-03-23T00:44:09;14.20;63.10
66086;DHT22;52868;49.758;9.586;2023-03-23T00:46:35;14.20;63.20
66086;DHT22;52868;49.758;9.586;2023-03-23T00:49:11;14.20;63.20
66086;DHT22;52868;49.758;9.586;2023-03-23T00:51:38;14.20;63.10
66086;DHT22;52868;49.758;9.586;2023-03-23T00:54:04;14.20;63.30
66086;DHT22;52868;49.758;9.586;2023-03-23T00:56:29;14.20;63.20
66086;DHT22;52868;49.758;9.586;2023-03-23T00:58:55;14.20;63.10
66086;DHT22;52868;49.758;9.586;2023-03-23T01:01:21;14.20;63.10
66086;DHT22;52868;49.758;9.586;2023-03-23T01:03:46;14.20;63.00
66086;DHT22;52868;49.758;9.586;2023-03-23T01:06:12;14.20;62.90
66086;DHT22;52868;49.758;9.586;2023-03-23T01:08:41;14.20;63.00
66086;DHT22;52868;49.758;9.586;2023-03-23T01:11:15;14.20;62.90
66086;DHT22;52868;49.758;9.586;2023-03-23T01:13:44;14.20;62.80
66086;DHT22;52868;49.758;9.586;2023-03-23T01:16:10;14.20;62.70
66086;DHT22;52868;49.758;9.586;2023-03-23T01:18:37;14.20;62.80
66086;DHT22;52868;49.758;9.586;2023-03-23T01:21:05;14.20;62.80
66086;DHT22;52868;49.758;9.586;2023-03-23T01:23:32;14.20;62.80
66086;DHT22;52868;49.758;9.586;2023-03-23T01:26:06;14.20;62.60
66086;DHT22;52868;49.758;9.586;2023-03-23T01:28:33;14.20;62.60
66086;DHT22;52868;49.758;9.586;2023-03-23T01:31:04;14.20;62.50
66086;DHT22;52868;49.758;9.586;2023-03-23T01:33:30;14.10;62.60
66086;DHT22;52868;49.758;9.586;2023-03-23T01:35:56;14.10;62.70
66086;DHT22;52868;49.758;9.586;2023-03-23T01:38:22;14.10;62.60
66086;DHT22;52868;49.758;9.586;2023-03-23T01:40:47;14.10;62.50
66086;DHT22;52868;49.758;9.586;2023-03-23T01:43:14;14.20;62.60
66086;DHT22;52868;49.758;9.586;2023-03-23T01:45:41;14.10;62.60
66086;DHT22;52868;49.758;9.586;2023-03-23T01:48:21;14.10;62.60
66086;DHT22;52868;49.758;9.586;2023-03-23T01:51:01;14.10;62.70
66086;DHT22;52868;49.758;9.586;2023-03-23T01:53:40;14.10;62.60
66086;DHT22;52868;49.758;9.586;2023-03-23T01:56:09;14.10;62.50
66086;DHT22;52868;49.758;9.586;2023-03-23T01:58:37;14.10;62.50
66086;DHT22;52868;49.758;9.586;2023-03-23T02:01:07;14.10;62.50
66086;DHT22;52868;49.758;9.586;2023-03-23T02:03:37;14.10;62.60
66086;DHT22;52868;49.758;9.586;2023-03-23T02:06:04;14.10;62.50
66086;DHT22;52868;49.758;9.586;2023-03-23T02:08:31;14.10;62.60
66086;DHT22;52868;49.758;9.586;2023-03-23T02:11:00;14.10;62.50
66086;DHT22;52868;49.758;9.586;2023-03-23T02:13:27;14.00;62.60
66086;DHT22;52868;49.758;9.586;2023-03-23T02:21:28;14.00;62.60
66086;DHT22;52868;49.758;9.586;2023-03-23T02:24:18;14.00;62.50
66086;DHT22;52868;49.758;9.586;2023-03-23T02:29:48;14.00;62.50
66086;DHT22;52868;49.758;9.586;2023-03-23T02:35:19;14.00;62.60
66086;DHT22;52868;49.758;9.586;2023-03-23T02:38:01;14.00;62.50
66086;DHT22;52868;49.758;9.586;2023-03-23T02:40:36;14.00;62.50
66086;DHT22;52868;49.758;9.586;2023-03-23T02:43:04;14.00;62.60
66086;DHT22;52868;49.758;9.586;2023-03-23T02:45:33;14.00;62.50
66086;DHT22;52868;49.758;9.586;2023-03-23T02:48:00;14.00;62.70
66086;DHT22;52868;49.758;9.586;2023-03-23T02:50:27;13.90;62.60
66086;DHT22;52868;49.758;9.586;2023-03-23T02:52:55;13.90;62.50
66086;DHT22;52868;49.758;9.586;2023-03-23T02:55:22;14.00;62.50
66086;DHT22;52868;49.758;9.586;2023-03-23T02:57:51;14.00;62.30
66086;DHT22;52868;49.758;9.586;2023-03-23T03:00:17;14.00;62.50
66086;DHT22;52868;49.758;9.586;2023-03-23T03:02:46;14.00;62.40
66086;DHT22;52868;49.758;9.586;2023-03-23T03:10:54;14.00;62.30
66086;DHT22;52868;49.758;9.586;2023-03-23T03:16:21;14.00;62.30
66086;DHT22;52868;49.758;9.586;2023-03-23T03:18:59;14.00;62.30
66086;DHT22;52868;49.758;9.586;2023-03-23T03:21:29;14.00;62.40
66086;DHT22;52868;49.758;9.586;2023-03-23T03:23:56;14.00;62.60
66086;DHT22;52868;49.758;9.586;2023-03-23T03:26:25;14.00;62.40
66086;DHT22;52868;49.758;9.586;2023-03-23T03:28:52;14.00;62.40
66086;DHT22;52868;49.758;9.586;2023-03-23T03:31:21;14.00;62.50
66086;DHT22;52868;49.758;9.586;2023-03-23T03:33:48;14.00;62.50
66086;DHT22;52868;49.758;9.586;2023-03-23T03:36:21;13.90;62.40
66086;DHT22;52868;49.758;9.586;2023-03-23T03:38:50;14.00;62.50
66086;DHT22;52868;49.758;9.586;2023-03-23T03:41:16;13.90;62.40
66086;DHT22;52868;49.758;9.586;2023-03-23T03:43:42;13.90;62.40
66086;DHT22;52868;49.758;9.586;2023-03-23T03:46:08;14.00;62.50
66086;DHT22;52868;49.758;9.586;2023-03-23T03:48:34;13.90;62.60
66086;DHT22;52868;49.758;9.586;2023-03-23T03:50:59;13.90;62.60
66086;DHT22;52868;49.758;9.586;2023-03-23T03:53:26;13.90;62.60
66086;DHT22;52868;49.758;9.586;2023-03-23T03:55:52;13.90;62.60
66086;DHT22;52868;49.758;9.586;2023-03-23T03:58:21;13.90;62.50
66086;DHT22;52868;49.758;9.586;2023-03-23T04:00:48;13.90;62.70
66086;DHT22;52868;49.758;9.586;2023-03-23T04:03:14;13.90;62.50
66086;DHT22;52868;49.758;9.586;2023-03-23T04:05:40;13.90;62.50
66086;DHT22;52868;49.758;9.586;2023-03-23T04:08:07;13.80;62.50
66086;DHT22;52868;49.758;9.586;2023-03-23T04:10:32;13.90;62.50
66086;DHT22;52868;49.758;9.586;2023-03-23T04:12:59;13.90;62.50
66086;DHT22;52868;49.758;9.586;2023-03-23T04:15:25;13.90;62.50
66086;DHT22;52868;49.758;9.586;2023-03-23T04:17:51;13.90;62.60
66086;DHT22;52868;49.758;9.586;2023-03-23T04:20:17;13.90;62.60
66086;DHT22;52868;49.758;9.586;2023-03-23T04:22:44;13.90;62.60
66086;DHT22;52868;49.758;9.586;2023-03-23T04:25:15;13.90;62.70
66086;DHT22;52868;49.758;9.586;2023-03-23T04:27:43;13.90;62.60
66086;DHT22;52868;49.758;9.586;2023-03-23T04:30:13;13.90;62.60
66086;DHT22;52868;49.758;9.586;2023-03-23T04:32:39;13.80;62.70
66086;DHT22;52868;49.758;9.586;2023-03-23T04:35:12;13.80;62.70
66086;DHT22;52868;49.758;9.586;2023-03-23T04:37:40;13.80;62.70
66086;DHT22;52868;49.758;9.586;2023-03-23T04:40:07;13.90;62.80
66086;DHT22;52868;49.758;9.586;2023-03-23T04:42:37;13.80;62.80
66086;DHT22;52868;49.758;9.586;2023-03-23T04:45:04;13.80;62.90
66086;DHT22;52868;49.758;9.586;2023-03-23T04:47:33;13.80;63.00
66086;DHT22;52868;49.758;9.586;2023-03-23T04:50:00;13.80;63.00
66086;DHT22;52868;49.758;9.586;2023-03-23T04:52:27;13.80;63.10
66086;DHT22;52868;49.758;9.586;2023-03-23T04:54:54;13.80;63.10
66086;DHT22;52868;49.758;9.586;2023-03-23T04:57:22;13.80;63.20
66086;DHT22;52868;49.758;9.586;2023-03-23T04:59:47;13.80;63.30
66086;DHT22;52868;49.758;9.586;2023-03-23T05:02:13;13.80;63.30
66086;DHT22;52868;49.758;9.586;2023-03-23T05:04:40;13.80;63.30
66086;DHT22;52868;49.758;9.586;2023-03-23T05:07:10;13.80;63.50
66086;DHT22;52868;49.758;9.586;2023-03-23T05:09:36;13.80;63.70
66086;DHT22;52868;49.758;9.586;2023-03-23T05:12:06;13.80;63.90
66086;DHT22;52868;49.758;9.586;2023-03-23T05:14:32;13.80;64.10
66086;DHT22;52868;49.758;9.586;2023-03-23T05:16:58;13.80;64.30
66086;DHT22;52868;49.758;9.586;2023-03-23T05:19:24;13.80;64.50
66086;DHT22;52868;49.758;9.586;2023-03-23T05:21:49;13.80;64.40
66086;DHT22;52868;49.758;9.586;2023-03-23T05:24:15;13.80;64.60
66086;DHT22;52868;49.758;9.586;2023-03-23T05:26:40;13.80;64.90
66086;DHT22;52868;49.758;9.586;2023-03-23T05:29:06;13.80;65.10
66086;DHT22;52868;49.758;9.586;2023-03-23T05:31:32;13.80;65.00
66086;DHT22;52868;49.758;9.586;2023-03-23T05:33:57;13.80;65.20
66086;DHT22;52868;49.758;9.586;2023-03-23T05:36:23;13.80;65.80
66086;DHT22;52868;49.758;9.586;2023-03-23T05:38:52;13.80;65.90
66086;DHT22;52868;49.758;9.586;2023-03-23T05:41:18;13.80;65.80
66086;DHT22;52868;49.758;9.586;2023-03-23T05:43:43;13.80;65.80
66086;DHT22;52868;49.758;9.586;2023-03-23T05:46:09;13.80;65.80
66086;DHT22;52868;49.758;9.586;2023-03-23T05:48:35;13.80;65.80
66086;DHT22;52868;49.758;9.586;2023-03-23T05:51:01;13.80;65.80
66086;DHT22;52868;49.758;9.586;2023-03-23T05:53:27;13.80;65.90
66086;DHT22;52868;49.758;9.586;2023-03-23T05:55:58;13.80;66.00
66086;DHT22;52868;49.758;9.586;2023-03-23T05:58:25;13.70;66.20
66086;DHT22;52868;49.758;9.586;2023-03-23T06:00:50;13.70;66.10
66086;DHT22;52868;49.758;9.586;2023-03-23T06:03:16;13.70;66.00
66086;DHT22;52868;49.758;9.586;2023-03-23T06:05:43;13.80;66.20
66086;DHT22;52868;49.758;9.586;2023-03-23T06:08:10;13.70;66.20
66086;DHT22;52868;49.758;9.586;2023-03-23T06:10:35;13.70;66.40
66086;DHT22;52868;49.758;9.586;2023-03-23T06:13:02;13.70;66.30
66086;DHT22;52868;49.758;9.586;2023-03-23T06:15:28;13.70;66.40
66086;DHT22;52868;49.758;9.586;2023-03-23T06:17:58;13.70;66.50
66086;DHT22;52868;49.758;9.586;2023-03-23T06:20:24;13.70;66.80
66086;DHT22;52868;49.758;9.586;2023-03-23T06:22:50;13.70;66.80
66086;DHT22;52868;49.758;9.586;2023-03-23T06:25:17;13.70;66.60
66086;DHT22;52868;49.758;9.586;2023-03-23T06:27:43;13.70;66.70
66086;DHT22;52868;49.758;9.586;2023-03-23T06:30:09;13.70;66.70
66086;DHT22;52868;49.758;9.586;2023-03-23T06:32:36;13.70;66.60
66086;DHT22;52868;49.758;9.586;2023-03-23T06:35:03;13.70;66.60
66086;DHT22;52868;49.758;9.586;2023-03-23T06:37:29;13.70;66.70
66086;DHT22;52868;49.758;9.586;2023-03-23T06:39:55;13.70;66.70
66086;DHT22;52868;49.758;9.586;2023-03-23T06:42:22;13.70;66.70
66086;DHT22;52868;49.758;9.586;2023-03-23T06:44:50;13.70;66.80
66086;DHT22;52868;49.758;9.586;2023-03-23T06:47:16;13.70;66.80
66086;DHT22;52868;49.758;9.586;2023-03-23T06:49:41;13.80;66.90
66086;DHT22;52868;49.758;9.586;2023-03-23T06:52:07;13.80;66.70
66086;DHT22;52868;49.758;9.586;2023-03-23T06:54:33;13.80;66.70
66086;DHT22;52868;49.758;9.586;2023-03-23T06:56:59;13.80;66.90
66086;DHT22;52868;49.758;9.586;2023-03-23T06:59:24;13.80;66.80
66086;DHT22;52868;49.758;9.586;2023-03-23T07:01:50;13.80;66.80
66086;DHT22;52868;49.758;9.586;2023-03-23T07:04:16;13.80;66.80
66086;DHT22;52868;49.758;9.586;2023-03-23T07:06:41;13.80;66.80
66086;DHT22;52868;49.758;9.586;2023-03-23T07:09:07;13.80;66.90
66086;DHT22;52868;49.758;9.586;2023-03-23T07:11:33;13.80;67.00
66086;DHT22;52868;49.758;9.586;2023-03-23T07:13:59;13.80;67.00
66086;DHT22;52868;49.758;9.586;2023-03-23T07:16:24;13.80;67.00
66086;DHT22;52868;49.758;9.586;2023-03-23T07:18:51;13.80;67.00
66086;DHT22;52868;49.758;9.586;2023-03-23T07:21:17;13.90;67.00
66086;DHT22;52868;49.758;9.586;2023-03-23T07:23:43;13.90;67.00
66086;DHT22;52868;49.758;9.586;2023-03-23T07:26:08;13.90;67.10
66086;DHT22;52868;49.758;9.586;2023-03-23T07:28:34;13.90;67.10
66086;DHT22;52868;49.758;9.586;2023-03-23T07:31:00;13.90;67.00
66086;DHT22;52868;49.758;9.586;2023-03-23T07:33:25;13.90;66.90
66086;DHT22;52868;49.758;9.586;2023-03-23T07:35:52;13.90;67.00
66086;DHT22;52868;49.758;9.586;2023-03-23T07:38:17;14.00;67.10
66086;DHT22;52868;49.758;9.586;2023-03-23T07:40:43;14.00;67.10
66086;DHT22;52868;49.758;9.586;2023-03-23T07:43:10;14.00;67.20
66086;DHT22;52868;49.758;9.586;2023-03-23T07:45:36;14.00;67.10
66086;DHT22;52868;49.758;9.586;2023-03-23T07:48:02;14.00;67.10
66086;DHT22;52868;49.758;9.586;2023-03-23T07:50:28;14.00;67.20
66086;DHT22;52868;49.758;9.586;2023-03-23T07:52:56;14.00;67.20
66086;DHT22;52868;49.758;9.586;2023-03-23T07:55:24;14.00;67.30
66086;DHT22;52868;49.758;9.586;2023-03-23T07:57:51;14.10;67.60
66086;DHT22;52868;49.758;9.586;2023-03-23T08:00:19;14.10;67.50
66086;DHT22;52868;49.758;9.586;2023-03-23T08:02:50;14.00;67.80
66086;DHT22;52868;49.758;9.586;2023-03-23T08:05:16;14.10;67.80
66086;DHT22;52868;49.758;9.586;2023-03-23T08:07:44;14.10;67.80
66086;DHT22;52868;49.758;9.586;2023-03-23T08:10:11;14.00;68.00
66086;DHT22;52868;49.758;9.586;2023-03-23T08:12:38;14.10;68.00
66086;DHT22;52868;49.758;9.586;2023-03-23T08:15:06;14.10;68.00
66086;DHT22;52868;49.758;9.586;2023-03-23T08:17:32;14.10;67.90
66086;DHT22;52868;49.758;9.586;2023-03-23T08:19:59;14.20;68.00
66086;DHT22;52868;49.758;9.586;2023-03-23T08:22:26;14.10;67.80
66086;DHT22;52868;49.758;9.586;2023-03-23T08:24:51;14.10;68.30
66086;DHT22;52868;49.758;9.586;2023-03-23T08:27:18;14.20;68.10
66086;DHT22;52868;49.758;9.586;2023-03-23T08:29:46;14.20;68.30
66086;DHT22;52868;49.758;9.586;2023-03-23T08:32:13;14.20;68.10
66086;DHT22;52868;49.758;9.586;2023-03-23T08:34:40;14.20;68.20
66086;DHT22;52868;49.758;9.586;2023-03-23T08:37:07;14.20;68.40
66086;DHT22;52868;49.758;9.586;2023-03-23T08:39:34;14.20;68.60
66086;DHT22;52868;49.758;9.586;2023-03-23T08:42:00;14.20;68.30
66086;DHT22;52868;49.758;9.586;2023-03-23T08:44:25;14.20;68.60
66086;DHT22;52868;49.758;9.586;2023-03-23T08:46:51;14.30;68.40
66086;DHT22;52868;49.758;9.586;2023-03-23T08:49:22;14.20;68.50
66086;DHT22;52868;49.758;9.586;2023-03-23T08:51:48;14.20;68.50
66086;DHT22;52868;49.758;9.586;2023-03-23T08:54:14;14.20;68.90
66086;DHT22;52868;49.758;9.586;2023-03-23T08:56:39;14.20;68.90
66086;DHT22;52868;49.758;9.586;2023-03-23T08:59:06;14.20;68.70
66086;DHT22;52868;49.758;9.586;2023-03-23T09:01:32;14.30;68.90
66086;DHT22;52868;49.758;9.586;2023-03-23T09:03:58;14.20;68.80
66086;DHT22;52868;49.758;9.586;2023-03-23T09:06:25;14.30;68.90
66086;DHT22;52868;49.758;9.586;2023-03-23T09:08:54;14.30;68.90
66086;DHT22;52868;49.758;9.586;2023-03-23T09:11:24;14.30;68.90
66086;DHT22;52868;49.758;9.586;2023-03-23T09:13:50;14.30;69.00
66086;DHT22;52868;49.758;9.586;2023-03-23T09:16:16;14.30;69.10
66086;DHT22;52868;49.758;9.586;2023-03-23T09:18:41;14.30;69.10
66086;DHT22;52868;49.758;9.586;2023-03-23T09:21:07;14.30;69.10
66086;DHT22;52868;49.758;9.586;2023-03-23T09:23:33;14.30;69.20
66086;DHT22;52868;49.758;9.586;2023-03-23T09:26:02;14.30;69.20
66086;DHT22;52868;49.758;9.586;2023-03-23T09:28:28;14.40;69.10
66086;DHT22;52868;49.758;9.586;2023-03-23T09:30:55;14.40;69.00
66086;DHT22;52868;49.758;9.586;2023-03-23T09:33:23;14.40;69.20
66086;DHT22;52868;49.758;9.586;2023-03-23T09:35:48;14.30;69.10
66086;DHT22;52868;49.758;9.586;2023-03-23T09:38:14;14.40;69.10
66086;DHT22;52868;49.758;9.586;2023-03-23T09:46:34;14.40;69.10
66086;DHT22;52868;49.758;9.586;2023-03-23T09:49:22;14.40;69.00
66086;DHT22;52868;49.758;9.586;2023-03-23T09:51:57;14.40;69.10
66086;DHT22;52868;49.758;9.586;2023-03-23T09:54:39;14.40;69.10
66086;DHT22;52868;49.758;9.586;2023-03-23T09:59:55;14.40;69.60
66086;DHT22;52868;49.758;9.586;2023-03-23T10:02:40;14.30;69.60
66086;DHT22;52868;49.758;9.586;2023-03-23T10:05:30;14.40;69.90
66086;DHT22;52868;49.758;9.586;2023-03-23T10:07:58;14.40;69.90
66086;DHT22;52868;49.758;9.586;2023-03-23T10:10:36;14.30;70.00
66086;DHT22;52868;49.758;9.586;2023-03-23T10:15:51;14.30;70.20
66086;DHT22;52868;49.758;9.586;2023-03-23T10:18:33;14.30;70.10
66086;DHT22;52868;49.758;9.586;2023-03-23T10:21:01;14.30;70.30
66086;DHT22;52868;49.758;9.586;2023-03-23T10:23:35;14.30;70.10
66086;DHT22;52868;49.758;9.586;2023-03-23T10:31:44;14.40;69.90
66086;DHT22;52868;49.758;9.586;2023-03-23T10:34:32;14.40;69.90
66086;DHT22;52868;49.758;9.586;2023-03-23T10:37:05;14.40;70.30
66086;DHT22;52868;49.758;9.586;2023-03-23T10:39:59;14.40;69.90
66086;DHT22;52868;49.758;9.586;2023-03-23T10:42:37;14.50;69.90
66086;DHT22;52868;49.758;9.586;2023-03-23T10:47:43;14.60;69.80
66086;DHT22;52868;49.758;9.586;2023-03-23T10:50:18;14.70;69.50
66086;DHT22;52868;49.758;9.586;2023-03-23T10:52:50;14.70;69.30
66086;DHT22;52868;49.758;9.586;2023-03-23T10:55:21;14.70;69.20
66086;DHT22;52868;49.758;9.586;2023-03-23T10:58:02;14.70;69.10
66086;DHT22;52868;49.758;9.586;2023-03-23T11:00:30;14.70;69.00
66086;DHT22;52868;49.758;9.586;2023-03-23T11:06:01;14.70;68.80
66086;DHT22;52868;49.758;9.586;2023-03-23T11:08:54;14.70;68.70
66086;DHT22;52868;49.758;9.586;2023-03-23T11:13:57;14.70;68.30
66086;DHT22;52868;49.758;9.586;2023-03-23T11:16:30;14.70;68.40
66086;DHT22;52868;49.758;9.586;2023-03-23T11:18:58;14.70;68.20
66086;DHT22;52868;49.758;9.586;2023-03-23T11:21:24;14.70;68.00
66086;DHT22;52868;49.758;9.586;2023-03-23T11:23:56;14.70;68.10
66086;DHT22;52868;49.758;9.586;2023-03-23T11:26:29;14.70;68.10
66086;DHT22;52868;49.758;9.586;2023-03-23T11:29:10;14.60;68.20
66086;DHT22;52868;49.758;9.586;2023-03-23T11:31:43;14.70;68.20
66086;DHT22;52868;49.758;9.586;2023-03-23T11:34:15;14.60;68.20
66086;DHT22;52868;49.758;9.586;2023-03-23T11:36:53;14.70;68.40
66086;DHT22;52868;49.758;9.586;2023-03-23T11:41:52;14.60;68.60
66086;DHT22;52868;49.758;9.586;2023-03-23T11:44:21;14.60;69.10
66086;DHT22;52868;49.758;9.586;2023-03-23T11:52:20;14.50;69.50
66086;DHT22;52868;49.758;9.586;2023-03-23T11:54:52;14.50;70.40
66086;DHT22;52868;49.758;9.586;2023-03-23T11:57:20;14.50;70.80
66086;DHT22;52868;49.758;9.586;2023-03-23T11:59:46;14.50;70.80
66086;DHT22;52868;49.758;9.586;2023-03-23T12:26:39;14.50;72.10
66086;DHT22;52868;49.758;9.586;2023-03-23T12:37:35;14.60;72.40
66086;DHT22;52868;49.758;9.586;2023-03-23T12:40:56;14.60;72.10
66086;DHT22;52868;49.758;9.586;2023-03-23T12:43:29;14.60;72.40
66086;DHT22;52868;49.758;9.586;2023-03-23T12:49:02;14.70;72.30
66086;DHT22;52868;49.758;9.586;2023-03-23T12:51:37;14.80;72.40
66086;DHT22;52868;49.758;9.586;2023-03-23T12:56:50;14.80;72.20
66086;DHT22;52868;49.758;9.586;2023-03-23T12:59:42;14.80;72.30
66086;DHT22;52868;49.758;9.586;2023-03-23T13:02:34;14.80;72.20
66086;DHT22;52868;49.758;9.586;2023-03-23T13:05:09;14.80;71.90
66086;DHT22;52868;49.758;9.586;2023-03-23T13:07:47;14.80;71.60
66086;DHT22;52868;49.758;9.586;2023-03-23T13:10:29;14.80;71.40
66086;DHT22;52868;49.758;9.586;2023-03-23T13:12:57;14.90;71.40
66086;DHT22;52868;49.758;9.586;2023-03-23T13:15:40;14.80;71.30
66086;DHT22;52868;49.758;9.586;2023-03-23T13:23:32;14.90;70.80
66086;DHT22;52868;49.758;9.586;2023-03-23T13:26:06;15.00;70.20
66086;DHT22;52868;49.758;9.586;2023-03-23T13:28:55;15.00;70.20
66086;DHT22;52868;49.758;9.586;2023-03-23T13:31:30;15.00;70.20
66086;DHT22;52868;49.758;9.586;2023-03-23T13:34:22;15.00;70.10
66086;DHT22;52868;49.758;9.586;2023-03-23T13:37:01;15.00;70.00
66086;DHT22;52868;49.758;9.586;2023-03-23T13:39:35;15.10;70.00
66086;DHT22;52868;49.758;9.586;2023-03-23T13:42:19;15.10;69.80
66086;DHT22;52868;49.758;9.586;2023-03-23T14:00:44;15.10;69.10
66086;DHT22;52868;49.758;9.586;2023-03-23T14:06:01;15.10;69.40
66086;DHT22;52868;49.758;9.586;2023-03-23T14:10:59;15.10;69.20
66086;DHT22;52868;49.758;9.586;2023-03-23T14:16:40;15.10;69.30
66086;DHT22;52868;49.758;9.586;2023-03-23T14:19:22;15.10;69.20
66086;DHT22;52868;49.758;9.586;2023-03-23T14:21:57;15.10;69.20
66086;DHT22;52868;49.758;9.586;2023-03-23T14:24:33;15.00;69.20
66086;DHT22;52868;49.758;9.586;2023-03-23T14:27:20;15.00;69.10
66086;DHT22;52868;49.758;9.586;2023-03-23T14:29:57;15.00;69.00
66086;DHT22;52868;49.758;9.586;2023-03-23T14:32:23;15.00;68.90
66086;DHT22;52868;49.758;9.586;2023-03-23T14:34:52;15.00;68.90
66086;DHT22;52868;49.758;9.586;2023-03-23T14:37:18;15.00;68.90
66086;DHT22;52868;49.758;9.586;2023-03-23T14:39:47;15.00;68.80
66086;DHT22;52868;49.758;9.586;2023-03-23T14:42:16;15.00;68.80
66086;DHT22;52868;49.758;9.586;2023-03-23T14:44:44;15.00;68.80
66086;DHT22;52868;49.758;9.586;2023-03-23T14:47:30;15.00;68.80
66086;DHT22;52868;49.758;9.586;2023-03-23T14:49:58;15.00;68.70
66086;DHT22;52868;49.758;9.586;2023-03-23T14:52:27;14.90;68.70
66086;DHT22;52868;49.758;9.586;2023-03-23T14:54:53;14.90;68.80
66086;DHT22;52868;49.758;9.586;2023-03-23T14:57:26;14.90;68.70
66086;DHT22;52868;49.758;9.586;2023-03-23T14:59:53;14.90;68.80
66086;DHT22;52868;49.758;9.586;2023-03-23T15:02:30;14.90;68.90
66086;DHT22;52868;49.758;9.586;2023-03-23T15:05:03;14.90;69.10
66086;DHT22;52868;49.758;9.586;2023-03-23T15:07:35;14.80;69.20
66086;DHT22;52868;49.758;9.586;2023-03-23T15:10:05;14.80;69.40
66086;DHT22;52868;49.758;9.586;2023-03-23T15:12:31;14.80;69.60
66086;DHT22;52868;49.758;9.586;2023-03-23T15:14:59;14.80;69.60
66086;DHT22;52868;49.758;9.586;2023-03-23T15:17:28;14.80;69.90
66086;DHT22;52868;49.758;9.586;2023-03-23T15:19:55;14.80;69.80
66086;DHT22;52868;49.758;9.586;2023-03-23T15:22:29;14.80;69.80
66086;DHT22;52868;49.758;9.586;2023-03-23T15:25:20;14.70;70.20
66086;DHT22;52868;49.758;9.586;2023-03-23T15:32:47;14.70;71.00
66086;DHT22;52868;49.758;9.586;2023-03-23T15:35:21;14.70;71.30
66086;DHT22;52868;49.758;9.586;2023-03-23T15:37:52;14.70;71.20
66086;DHT22;52868;49.758;9.586;2023-03-23T15:40:21;14.70;71.40
66086;DHT22;52868;49.758;9.586;2023-03-23T15:42:48;14.70;71.00
66086;DHT22;52868;49.758;9.586;2023-03-23T15:50:19;14.60;71.30
66086;DHT22;52868;49.758;9.586;2023-03-23T15:52:45;14.60;71.20
66086;DHT22;52868;49.758;9.586;2023-03-23T15:55:27;14.60;71.10
66086;DHT22;52868;49.758;9.586;2023-03-23T15:57:55;14.60;71.10
66086;DHT22;52868;49.758;9.586;2023-03-23T16:00:23;14.70;71.00
66086;DHT22;52868;49.758;9.586;2023-03-23T16:02:58;14.60;70.90
66086;DHT22;52868;49.758;9.586;2023-03-23T16:05:24;14.60;70.90
66086;DHT22;52868;49.758;9.586;2023-03-23T16:07:50;14.60;71.00
66086;DHT22;52868;49.758;9.586;2023-03-23T16:10:18;14.60;71.20
66086;DHT22;52868;49.758;9.586;2023-03-23T16:12:45;14.60;71.20
66086;DHT22;52868;49.758;9.586;2023-03-23T16:15:11;14.60;71.10
66086;DHT22;52868;49.758;9.586;2023-03-23T16:17:37;14.60;71.20
66086;DHT22;52868;49.758;9.586;2023-03-23T16:20:14;14.60;71.20
66086;DHT22;52868;49.758;9.586;2023-03-23T16:22:40;14.60;71.20
66086;DHT22;52868;49.758;9.586;2023-03-23T16:25:07;14.60;71.00
66086;DHT22;52868;49.758;9.586;2023-03-23T16:27:33;14.70;71.00
66086;DHT22;52868;49.758;9.586;2023-03-23T16:29:58;14.60;71.00
66086;DHT22;52868;49.758;9.586;2023-03-23T16:32:25;14.60;70.90
66086;DHT22;52868;49.758;9.586;2023-03-23T16:34:51;14.60;70.90
66086;DHT22;52868;49.758;9.586;2023-03-23T16:37:17;14.60;70.90
66086;DHT22;52868;49.758;9.586;2023-03-23T16:39:42;14.60;70.80
66086;DHT22;52868;49.758;9.586;2023-03-23T16:42:08;14.60;70.80
66086;DHT22;52868;49.758;9.586;2023-03-23T16:44:34;14.60;70.70
66086;DHT22;52868;49.758;9.586;2023-03-23T16:46:59;14.60;70.60
66086;DHT22;52868;49.758;9.586;2023-03-23T16:49:25;14.60;70.60
66086;DHT22;52868;49.758;9.586;2023-03-23T16:51:51;14.60;70.50
66086;DHT22;52868;49.758;9.586;2023-03-23T16:54:16;14.60;70.60
66086;DHT22;52868;49.758;9.586;2023-03-23T16:56:42;14.60;70.50
66086;DHT22;52868;49.758;9.586;2023-03-23T16:59:11;14.60;70.60
66086;DHT22;52868;49.758;9.586;2023-03-23T17:01:37;14.60;70.50
66086;DHT22;52868;49.758;9.586;2023-03-23T17:04:03;14.60;70.50
66086;DHT22;52868;49.758;9.586;2023-03-23T17:06:29;14.60;70.50
66086;DHT22;52868;49.758;9.586;2023-03-23T17:08:54;14.60;70.40
66086;DHT22;52868;49.758;9.586;2023-03-23T17:11:20;14.60;70.50
66086;DHT22;52868;49.758;9.586;2023-03-23T17:13:46;14.60;70.50
66086;DHT22;52868;49.758;9.586;2023-03-23T17:16:12;14.60;70.50
66086;DHT22;52868;49.758;9.586;2023-03-23T17:18:37;14.60;70.50
66086;DHT22;52868;49.758;9.586;2023-03-23T17:21:03;14.60;70.40
66086;DHT22;52868;49.758;9.586;2023-03-23T17:23:29;14.60;70.40
66086;DHT22;52868;49.758;9.586;2023-03-23T17:25:55;14.60;70.50
66086;DHT22;52868;49.758;9.586;2023-03-23T17:28:21;14.60;70.50
66086;DHT22;52868;49.758;9.586;2023-03-23T17:30:47;14.60;70.40
66086;DHT22;52868;49.758;9.586;2023-03-23T17:33:12;14.60;70.40
66086;DHT22;52868;49.758;9.586;2023-03-23T17:35:38;14.60;70.40
66086;DHT22;52868;49.758;9.586;2023-03-23T17:38:04;14.50;70.40
66086;DHT22;52868;49.758;9.586;2023-03-23T17:40:30;14.60;70.40
66086;DHT22;52868;49.758;9.586;2023-03-23T17:42:55;14.50;70.40
66086;DHT22;52868;49.758;9.586;2023-03-23T17:45:21;14.50;70.40
66086;DHT22;52868;49.758;9.586;2023-03-23T17:47:47;14.60;70.40
66086;DHT22;52868;49.758;9.586;2023-03-23T17:50:12;14.60;70.40
66086;DHT22;52868;49.758;9.586;2023-03-23T17:52:39;14.60;70.40
66086;DHT22;52868;49.758;9.586;2023-03-23T17:55:06;14.50;70.50